Time;durP1;ratioP1;P1;durP2;ratioP2;P2;SDS_P1;SDS_P2;PMS_P1;PMS_P2;Temp;Humidity;BMP_temperature;BMP_pressure;BME280_temperature;BME280_humidity;BME280_pressure;Samples;Min_cycle;Max_cycle;Signal;HPM_P1;HPM_P2
2023/06/07 00:00:41;;;;;;;10.20;5.13;;;17.90;99.90;;;-144.05;58.80;56827.59;5073036;28;20097;-81
2023/06/07 00:03:09;;;;;;;11.65;6.03;;;17.90;99.90;;;-144.05;59.04;56831.84;5072995;28;20060;-82
2023/06/07 00:05:37;;;;;;;8.40;6.28;;;17.90;99.90;;;-144.05;58.83;56821.22;5054983;28;20080;-81
2023/06/07 00:08:04;;;;;;;9.85;5.63;;;17.90;99.90;;;-144.05;58.72;56819.09;5072399;28;20028;-82
2023/06/07 00:10:30;;;;;;;12.98;6.43;;;17.90;99.90;;;-144.05;58.80;56836.09;5054996;28;20042;-84
2023/06/07 00:12:56;;;;;;;14.73;5.63;;;17.80;99.90;;;-144.05;58.93;56814.84;5071394;28;20024;-82
2023/06/07 00:15:22;;;;;;;14.75;5.75;;;17.90;99.90;;;-144.05;59.06;56836.09;5055887;28;20382;-86
2023/06/07 00:17:47;;;;;;;13.38;6.05;;;17.80;99.90;;;-144.05;59.02;56827.59;5058909;28;20065;-86
2023/06/07 00:20:14;;;;;;;9.60;5.57;;;17.80;99.90;;;-144.05;58.73;56823.34;5062749;28;20044;-87
2023/06/07 00:22:41;;;;;;;12.05;5.65;;;17.80;99.90;;;-144.05;58.93;56821.22;5063725;28;20044;-84
2023/06/07 00:25:08;;;;;;;11.65;5.75;;;17.80;99.90;;;-144.05;59.10;56804.22;5077423;28;20028;-83
2023/06/07 00:27:34;;;;;;;13.70;5.95;;;17.80;99.90;;;-144.05;58.54;56816.97;5057246;28;20025;-85
2023/06/07 00:30:03;;;;;;;10.23;5.63;;;17.70;99.90;;;-144.05;58.62;56836.09;5056419;28;20031;-82
2023/06/07 00:32:29;;;;;;;8.90;5.90;;;17.70;99.90;;;-144.05;58.70;56819.09;5056373;28;20028;-81
2023/06/07 00:34:55;;;;;;;10.45;5.28;;;17.70;99.90;;;-144.05;58.25;56831.84;5073590;28;20028;-82
2023/06/07 00:37:21;;;;;;;8.30;5.55;;;17.70;99.90;;;-144.05;58.16;56831.84;5073215;28;20494;-81
2023/06/07 00:39:46;;;;;;;10.52;5.75;;;17.70;99.90;;;-144.05;58.17;56848.84;5073312;28;20039;-82
2023/06/07 00:42:12;;;;;;;9.45;5.35;;;17.70;99.90;;;-144.05;58.09;56850.97;5073056;28;20056;-84
2023/06/07 00:44:38;;;;;;;11.25;5.57;;;17.60;99.90;;;-144.05;58.26;56806.34;5054522;28;20111;-82
2023/06/07 00:47:04;;;;;;;11.77;5.32;;;17.60;99.90;;;-144.05;57.76;56827.59;5054825;28;20029;-81
2023/06/07 00:49:30;;;;;;;10.38;5.50;;;17.60;99.90;;;-144.05;57.80;56823.34;5070817;28;20587;-82
2023/06/07 00:51:57;;;;;;;13.13;5.75;;;17.60;99.90;;;-144.05;58.22;56819.09;5072289;28;20478;-83
2023/06/07 00:54:23;;;;;;;10.73;5.90;;;17.60;99.90;;;-144.05;58.33;56833.97;5072382;28;20100;-82
2023/06/07 00:56:50;;;;;;;11.35;5.93;;;17.60;99.90;;;-144.05;58.58;56827.59;5053895;28;20573;-81
2023/06/07 00:59:23;;;;;;;12.20;6.13;;;17.50;99.90;;;-144.05;58.90;56819.09;5053859;28;20090;-82
2023/06/07 01:01:55;;;;;;;11.80;5.85;;;17.50;99.90;;;-144.05;58.41;56825.47;5054024;28;20035;-82
2023/06/07 01:04:23;;;;;;;12.00;5.70;;;17.50;99.90;;;-144.05;58.46;56829.72;5071974;28;20059;-82
2023/06/07 01:06:52;;;;;;;11.00;5.85;;;17.50;99.90;;;-144.05;58.47;56812.72;5053470;28;20551;-82
2023/06/07 01:09:20;;;;;;;8.10;5.07;;;17.50;99.90;;;-144.05;58.48;56816.97;5053538;28;20028;-82
2023/06/07 01:11:53;;;;;;;9.25;5.60;;;17.40;99.90;;;-144.05;58.43;56814.84;5053939;28;20082;-83
2023/06/07 01:14:21;;;;;;;12.55;5.80;;;17.50;99.90;;;-144.05;58.30;56821.22;5070493;28;20016;-83
2023/06/07 01:16:52;;;;;;;10.85;5.63;;;17.40;99.90;;;-144.05;58.48;56833.97;5053623;28;20056;-81
2023/06/07 01:19:25;;;;;;;12.55;5.55;;;17.40;99.90;;;-144.05;58.17;56819.09;5053704;28;20064;-82
2023/06/07 01:22:07;;;;;;;9.43;5.22;;;17.30;99.90;;;-144.05;58.11;56833.97;5071609;28;20036;-81
2023/06/07 01:24:35;;;;;;;14.70;5.63;;;17.30;99.90;;;-144.05;58.14;56823.34;5053686;28;20177;-81
2023/06/07 01:27:07;;;;;;;12.95;5.03;;;17.30;99.90;;;-144.05;58.02;56831.84;5071452;28;20032;-82
2023/06/07 01:29:33;;;;;;;9.60;4.68;;;17.30;99.90;;;-144.05;57.85;56819.09;5071317;28;20108;-80
2023/06/07 01:32:05;;;;;;;8.13;4.65;;;17.30;99.90;;;-144.05;57.85;56806.34;5076705;28;20032;-85
2023/06/07 01:34:34;;;;;;;7.97;4.93;;;17.20;99.90;;;-144.05;57.39;56806.34;5078829;28;20098;-86
2023/06/07 01:37:02;;;;;;;11.60;4.82;;;17.20;99.90;;;-144.05;57.62;56825.47;5059204;28;20025;-83
2023/06/07 01:39:31;;;;;;;11.27;5.03;;;17.10;99.90;;;-144.05;57.85;56838.22;5058980;28;20401;-85
2023/06/07 01:42:01;;;;;;;11.07;5.45;;;17.10;99.90;;;-144.05;57.75;56823.34;5074285;28;20064;-84
2023/06/07 01:44:29;;;;;;;7.93;5.15;;;17.10;99.90;;;-144.05;57.54;56802.09;5072595;28;20514;-82
2023/06/07 01:46:55;;;;;;;10.95;4.43;;;17.10;99.90;;;-144.05;57.90;56831.84;5072018;28;20509;-82
2023/06/07 01:49:21;;;;;;;12.80;4.95;;;17.10;99.90;;;-144.05;57.76;56819.09;5054592;28;20024;-81
2023/06/07 01:51:47;;;;;;;8.75;5.18;;;17.00;99.90;;;-144.05;57.76;56829.72;5054753;28;20043;-82
2023/06/07 01:54:16;;;;;;;9.70;5.30;;;17.00;99.90;;;-144.05;57.83;56842.47;5070817;28;20054;-82
2023/06/07 01:57:27;;;;;;;11.85;5.82;;;17.00;99.90;;;-144.05;57.71;56838.22;5053809;28;20121;-80
2023/06/07 02:00:45;;;;;;;11.05;5.40;;;17.00;99.90;;;-144.05;57.30;56819.09;5071525;28;20351;-82
2023/06/07 02:03:43;;;;;;;11.73;5.63;;;16.90;99.90;;;-144.05;57.22;56848.84;5053391;28;20482;-81
2023/06/07 02:06:20;;;;;;;10.45;5.70;;;16.80;99.90;;;-144.05;57.07;56833.97;5076831;28;20501;-82
2023/06/07 02:08:53;;;;;;;12.48;4.88;;;16.90;99.90;;;-144.05;57.37;56825.47;5056811;23;20037;-85
2023/06/07 02:11:25;;;;;;;11.43;5.80;;;16.80;99.90;;;-144.05;57.46;56812.72;5034844;28;20040;-84
2023/06/07 02:13:53;;;;;;;9.90;4.93;;;16.80;99.90;;;-144.05;57.43;56819.09;5033868;28;20418;-83
2023/06/07 02:16:35;;;;;;;7.43;5.00;;;16.70;99.90;;;-144.05;57.60;56810.59;5034005;28;20029;-84
2023/06/07 02:19:06;;;;;;;11.73;5.30;;;16.70;99.90;;;-144.05;57.52;56812.72;5033810;28;20112;-84
2023/06/07 02:21:37;;;;;;;9.68;4.97;;;16.70;99.90;;;-144.05;57.50;56808.47;5034174;28;20036;-84
2023/06/07 02:24:07;;;;;;;8.52;4.88;;;16.70;99.90;;;-144.05;57.61;56829.72;5033982;28;20048;-84
2023/06/07 02:26:33;;;;;;;12.80;5.63;;;16.70;99.90;;;-144.05;57.77;56840.34;5050098;28;20035;-83
2023/06/07 02:29:00;;;;;;;8.98;4.90;;;16.70;99.90;;;-144.05;57.84;56831.84;5051628;28;20033;-84
2023/06/07 02:31:26;;;;;;;8.27;4.95;;;16.60;99.90;;;-144.05;57.63;56810.59;5050404;28;20398;-84
2023/06/07 02:33:52;;;;;;;8.60;4.80;;;16.60;99.90;;;-144.05;57.61;56810.59;5033766;28;20116;-85
2023/06/07 02:36:24;;;;;;;11.07;4.97;;;16.60;99.90;;;-144.05;57.68;56806.34;5034028;28;20504;-84
2023/06/07 02:38:50;;;;;;;10.48;5.80;;;16.60;99.90;;;-144.05;57.39;56810.59;5034399;28;20399;-85
2023/06/07 02:41:15;;;;;;;8.90;5.45;;;16.50;99.90;;;-144.05;57.20;56823.34;5058896;28;20020;-81
2023/06/07 02:43:45;;;;;;;11.68;5.95;;;16.60;99.90;;;-144.05;57.09;56825.47;5035603;28;20041;-84
2023/06/07 02:46:13;;;;;;;8.63;5.20;;;16.50;99.90;;;-144.05;57.06;56825.47;5033578;28;20503;-84
2023/06/07 02:48:40;;;;;;;13.63;5.57;;;16.60;99.90;;;-144.05;57.29;56810.59;5033422;28;20029;-85
2023/06/07 02:51:06;;;;;;;10.50;5.38;;;16.50;99.90;;;-144.05;57.20;56819.09;5036511;28;20035;-86
2023/06/07 02:53:31;;;;;;;10.07;5.32;;;16.50;99.90;;;-144.05;57.42;56819.09;5037074;28;20112;-84
2023/06/07 02:55:57;;;;;;;9.85;5.07;;;16.50;99.90;;;-144.05;57.41;56821.22;5036854;28;20037;-84
2023/06/07 02:58:24;;;;;;;7.45;5.35;;;16.40;99.90;;;-144.05;57.64;56829.72;5037262;28;20029;-85
2023/06/07 03:00:54;;;;;;;10.30;5.57;;;16.40;99.90;;;-144.05;57.64;56810.59;5037959;28;20025;-85
2023/06/07 03:03:20;;;;;;;9.32;4.90;;;16.40;99.90;;;-144.05;57.82;56829.72;5037073;28;20572;-85
2023/06/07 03:05:48;;;;;;;8.43;5.15;;;16.30;99.90;;;-144.05;58.06;56823.34;5036848;28;20491;-84
2023/06/07 03:08:14;;;;;;;12.43;6.10;;;16.30;99.90;;;-144.05;58.17;56833.97;5036914;28;20025;-84
2023/06/07 03:10:40;;;;;;;12.13;5.15;;;16.30;99.90;;;-144.05;57.89;56819.09;5037012;28;20060;-84
2023/06/07 03:13:06;;;;;;;12.32;6.07;;;16.20;99.90;;;-144.05;57.82;56799.97;5037194;28;20021;-84
2023/06/07 03:15:35;;;;;;;11.93;5.60;;;16.20;99.90;;;-144.05;58.17;56797.88;5054507;28;20082;-83
2023/06/07 03:18:04;;;;;;;8.77;5.28;;;16.20;99.90;;;-144.05;57.93;56816.97;5036909;28;20100;-83
2023/06/07 03:20:33;;;;;;;14.32;5.57;;;16.20;99.90;;;-144.05;58.09;56825.47;5036838;28;20033;-84
2023/06/07 03:22:59;;;;;;;11.20;5.93;;;16.20;99.90;;;-144.05;58.25;56831.84;5036602;28;20021;-85
2023/06/07 03:25:25;;;;;;;8.25;5.47;;;16.20;99.90;;;-144.05;58.39;56819.09;5036711;28;20039;-84
2023/06/07 03:27:50;;;;;;;11.85;5.55;;;16.20;99.90;;;-144.05;58.63;56821.22;5036760;28;20047;-84
2023/06/07 03:30:16;;;;;;;10.00;5.68;;;16.10;99.90;;;-144.05;59.88;56840.34;5036630;28;20025;-84
2023/06/07 03:32:43;;;;;;;9.95;5.85;;;16.10;99.90;;;-144.05;60.86;56829.72;5036616;28;20463;-85
2023/06/07 03:35:09;;;;;;;10.20;6.20;;;16.10;99.90;;;-144.05;61.13;56840.34;5054340;28;20044;-84
2023/06/07 03:37:35;;;;;;;11.20;6.00;;;16.00;99.90;;;-144.05;61.48;56804.22;5036731;28;20399;-84
2023/06/07 03:40:01;;;;;;;11.30;6.05;;;15.90;99.90;;;-144.05;61.59;56821.22;5036407;28;20033;-84
2023/06/07 03:42:27;;;;;;;10.48;5.90;;;15.80;99.90;;;-144.05;62.24;56799.97;5036219;28;20032;-86
2023/06/07 03:44:52;;;;;;;11.48;6.35;;;15.80;99.90;;;-144.05;62.80;56802.09;5036490;28;20388;-84
2023/06/07 03:47:18;;;;;;;11.07;6.97;;;15.70;99.90;;;-144.05;63.10;56821.22;5036525;28;20029;-84
2023/06/07 03:49:44;;;;;;;13.27;7.70;;;15.60;99.90;;;-144.05;63.64;56823.34;5036245;28;20032;-85
2023/06/07 03:52:10;;;;;;;14.35;6.85;;;15.60;99.90;;;-144.05;64.43;56821.22;5036041;28;20049;-84
2023/06/07 03:54:36;;;;;;;11.88;7.05;;;15.50;99.90;;;-144.05;65.07;56814.84;5036674;28;20055;-85
2023/06/07 03:57:02;;;;;;;15.55;6.68;;;15.50;99.90;;;-144.05;65.07;56838.22;5036309;28;20032;-84
2023/06/07 03:59:29;;;;;;;11.68;7.40;;;15.40;99.90;;;-144.05;64.97;56821.22;5036022;28;20037;-84
2023/06/07 04:01:57;;;;;;;15.77;7.70;;;15.40;99.90;;;-144.05;65.82;56819.09;5035781;28;20036;-83
2023/06/07 04:04:27;;;;;;;15.25;6.85;;;15.40;99.90;;;-144.05;66.17;56825.47;5036307;28;20024;-83
2023/06/07 04:06:57;;;;;;;13.38;7.25;;;15.30;99.90;;;-144.05;66.92;56799.97;5035820;28;20044;-84
2023/06/07 04:09:23;;;;;;;15.02;8.48;;;15.20;99.90;;;-144.05;68.06;56802.09;5036240;28;20041;-83
2023/06/07 04:11:50;;;;;;;15.43;7.43;;;15.10;99.90;;;-144.05;68.51;56819.09;5036171;28;20419;-83
2023/06/07 04:14:16;;;;;;;16.15;7.65;;;15.10;99.90;;;-144.05;69.12;56838.22;5035928;28;20048;-86
2023/06/07 04:16:43;;;;;;;16.70;8.10;;;15.00;99.90;;;-144.05;69.69;56808.47;5035757;28;20035;-85
2023/06/07 04:19:09;;;;;;;14.10;7.13;;;14.90;99.90;;;-144.05;69.99;56821.22;5035950;28;20358;-85
2023/06/07 04:21:35;;;;;;;15.75;7.18;;;14.90;99.90;;;-144.05;70.74;56825.47;5019471;28;20417;-84
2023/06/07 04:24:02;;;;;;;14.07;7.65;;;14.80;99.90;;;-144.05;70.66;56804.22;5053411;28;20095;-85
2023/06/07 04:26:29;;;;;;;13.90;7.57;;;14.80;99.90;;;-144.05;71.28;56808.47;5035684;28;20490;-88
2023/06/07 04:28:56;;;;;;;9.60;7.10;;;14.90;99.90;;;-144.05;71.83;56799.97;5035257;28;20021;-84
2023/06/07 04:31:29;;;;;;;12.15;7.38;;;14.90;99.90;;;-144.05;72.54;56814.84;5040363;28;20240;-82
2023/06/07 04:34:01;;;;;;;14.52;8.30;;;14.90;99.90;;;-144.05;73.14;56833.97;5056564;28;20063;-85
2023/06/07 04:36:30;;;;;;;12.75;7.80;;;14.90;99.90;;;-144.05;73.36;56814.84;5035003;28;20032;-84
2023/06/07 04:38:58;;;;;;;9.60;6.32;;;14.90;99.90;;;-144.05;73.00;56808.47;5035385;28;20123;-86
2023/06/07 04:41:30;;;;;;;13.50;7.82;;;14.90;99.90;;;-144.05;72.85;56833.97;5052178;28;20435;-85
2023/06/07 04:43:57;;;;;;;15.85;8.45;;;14.80;99.90;;;-144.05;72.09;56836.09;5052016;28;20028;-85
2023/06/07 04:46:26;;;;;;;13.73;7.95;;;14.80;99.90;;;-144.05;71.63;56829.72;5035849;28;20033;-85
2023/06/07 04:48:53;;;;;;;16.10;8.98;;;14.80;99.90;;;-144.05;72.02;56808.47;5052107;28;20029;-86
2023/06/07 04:51:20;;;;;;;11.60;7.80;;;14.80;99.90;;;-144.05;72.41;56816.97;5035785;28;20025;-87
2023/06/07 04:53:47;;;;;;;12.88;7.45;;;14.80;99.90;;;-144.05;72.66;56814.84;5036740;28;20021;-90
2023/06/07 04:56:13;;;;;;;13.70;8.15;;;14.80;99.90;;;-144.05;73.11;56819.09;5035907;28;20064;-87
2023/06/07 04:58:40;;;;;;;11.48;7.50;;;14.80;99.90;;;-144.05;73.33;56840.34;5036593;28;20501;-87
2023/06/07 05:01:11;;;;;;;15.55;7.70;;;14.70;99.90;;;-144.05;73.69;56812.72;5037392;28;20516;-86
2023/06/07 05:03:42;;;;;;;13.50;7.85;;;14.80;99.90;;;-144.05;74.45;56808.47;5034875;28;20040;-86
2023/06/07 05:06:08;;;;;;;13.70;7.97;;;14.80;99.90;;;-144.05;74.59;56829.72;5034601;28;20025;-89
2023/06/07 05:08:34;;;;;;;11.88;8.00;;;14.80;99.90;;;-144.05;74.24;56808.47;5034836;28;20032;-90
2023/06/07 05:10:59;;;;;;;14.27;7.85;;;14.80;99.90;;;-144.05;73.68;56819.09;5035061;28;20033;-89
2023/06/07 05:13:25;;;;;;;13.98;7.72;;;14.70;99.90;;;-144.05;73.26;56823.34;5052031;28;20383;-89
2023/06/07 05:15:54;;;;;;;13.27;7.43;;;14.70;99.90;;;-144.05;73.58;56844.59;5035113;28;20440;-90
2023/06/07 05:18:20;;;;;;;12.45;7.68;;;14.70;99.90;;;-144.05;73.58;56827.59;5034854;28;20402;-89
2023/06/07 05:20:49;;;;;;;11.93;8.52;;;14.80;99.90;;;-144.05;73.54;56831.84;5035153;28;20032;-89
2023/06/07 05:23:19;;;;;;;14.25;8.18;;;14.80;99.90;;;-144.05;72.86;56823.34;5035137;28;20029;-89
2023/06/07 05:25:46;;;;;;;16.80;7.95;;;14.70;99.90;;;-144.05;73.04;56827.59;5035318;28;20136;-88
2023/06/07 05:28:13;;;;;;;11.40;8.02;;;14.70;99.90;;;-144.05;72.99;56831.84;5035963;28;20025;-90
2023/06/07 05:30:39;;;;;;;11.40;7.60;;;14.70;99.90;;;-144.05;73.05;56831.84;5035931;28;20096;-88
2023/06/07 05:33:09;;;;;;;10.35;7.10;;;14.80;99.90;;;-144.05;72.96;56825.47;5035567;28;20021;-90
2023/06/07 05:35:38;;;;;;;14.43;8.02;;;14.70;99.90;;;-144.05;73.02;56821.22;5035354;28;20372;-90
2023/06/07 05:38:04;;;;;;;13.77;7.70;;;14.70;99.90;;;-144.05;72.71;56810.59;5034989;28;20116;-88
2023/06/07 05:40:30;;;;;;;12.43;7.70;;;14.70;99.90;;;-144.05;72.64;56823.34;5035060;28;20120;-90
2023/06/07 05:42:56;;;;;;;11.85;8.15;;;14.60;99.90;;;-144.05;72.63;56806.34;5043693;28;20051;-81
2023/06/07 05:45:22;;;;;;;16.92;7.90;;;14.80;99.90;;;-144.05;72.48;56810.59;5059272;28;20027;-80
2023/06/07 05:47:57;;;;;;;15.18;8.52;;;14.70;99.90;;;-144.05;72.94;56836.09;5059166;28;20037;-82
2023/06/07 05:50:35;;;;;;;11.68;7.68;;;14.80;99.90;;;-144.05;72.77;56806.34;5044821;28;20041;-87
2023/06/07 05:53:06;;;;;;;11.23;7.68;;;14.80;99.90;;;-144.05;72.90;56802.09;5052338;28;20033;-90
2023/06/07 05:55:45;;;;;;;18.02;8.77;;;14.80;99.90;;;-144.05;72.54;56827.59;5035349;28;20043;-89
2023/06/07 05:58:14;;;;;;;18.67;8.63;;;14.80;99.90;;;-144.05;72.20;56819.09;5034507;28;20489;-89
2023/06/07 06:00:40;;;;;;;11.25;7.90;;;14.80;99.90;;;-144.05;71.97;56810.59;5034260;28;20465;-88
2023/06/07 06:03:08;;;;;;;18.50;9.35;;;14.80;99.90;;;-144.05;71.84;56819.09;5034514;28;20174;-88
2023/06/07 06:05:34;;;;;;;17.73;9.98;;;14.70;99.90;;;-144.05;72.00;56819.09;5033870;28;20106;-89
2023/06/07 06:08:00;;;;;;;13.48;8.82;;;14.70;99.90;;;-144.05;72.32;56814.84;5050690;28;20043;-88
2023/06/07 06:10:26;;;;;;;17.65;9.20;;;14.80;99.90;;;-144.05;72.36;56814.84;5034354;28;20025;-86
2023/06/07 06:12:53;;;;;;;15.13;9.10;;;14.80;99.90;;;-144.05;72.21;56823.34;5034222;28;20111;-88
2023/06/07 06:15:19;;;;;;;16.05;9.20;;;14.70;99.90;;;-144.05;72.44;56791.50;5035208;28;20021;-89
2023/06/07 06:17:45;;;;;;;15.93;9.27;;;14.70;99.90;;;-144.05;72.24;56797.88;5033943;28;20494;-88
2023/06/07 06:20:12;;;;;;;17.00;8.32;;;14.80;99.90;;;-144.05;72.61;56838.22;5034250;28;20033;-88
2023/06/07 06:22:38;;;;;;;16.15;9.30;;;14.70;99.90;;;-144.05;72.65;56808.47;5036884;28;20072;-88
2023/06/07 06:25:05;;;;;;;16.90;8.57;;;14.70;99.90;;;-144.05;72.59;56836.09;5061407;28;20041;-87
2023/06/07 06:27:34;;;;;;;15.73;11.00;;;14.70;99.90;;;-144.05;72.49;56821.22;5038898;28;20021;-88
2023/06/07 06:30:00;;;;;;;16.42;9.20;;;14.70;99.90;;;-144.05;72.75;56814.84;5054264;28;20055;-89
2023/06/07 06:32:26;;;;;;;18.60;8.82;;;14.80;99.90;;;-144.05;72.76;56804.22;5055853;28;20478;-89
2023/06/07 06:34:52;;;;;;;21.40;9.48;;;14.80;99.90;;;-144.05;72.52;56799.97;5039596;28;20048;-87
2023/06/07 06:37:18;;;;;;;17.73;10.32;;;14.70;99.90;;;-144.05;73.29;56823.34;5039850;28;20020;-90
2023/06/07 06:39:43;;;;;;;19.80;11.23;;;14.80;99.90;;;-144.05;73.82;56823.34;5040156;28;20494;-90
2023/06/07 06:42:10;;;;;;;17.35;10.63;;;14.80;99.90;;;-144.05;73.54;56810.59;5039162;28;20450;-87
2023/06/07 06:44:36;;;;;;;17.05;10.25;;;14.70;99.90;;;-144.05;73.65;56812.72;5039223;28;20062;-89
2023/06/07 06:47:02;;;;;;;20.13;10.65;;;14.80;99.90;;;-144.05;73.79;56806.34;5038988;28;20028;-89
2023/06/07 06:49:28;;;;;;;18.35;9.82;;;14.70;99.90;;;-144.05;73.73;56819.09;5039718;28;20033;-92
2023/06/07 06:51:54;;;;;;;19.88;10.88;;;14.70;99.90;;;-144.05;74.25;56804.22;5040430;28;20032;-85
2023/06/07 06:54:20;;;;;;;23.35;10.45;;;14.70;99.90;;;-144.05;74.50;56819.09;5039674;28;20078;-87
2023/06/07 06:56:53;;;;;;;22.00;11.07;;;14.70;99.90;;;-144.05;74.98;56829.72;5041301;28;20040;-90
2023/06/07 06:59:19;;;;;;;16.58;8.85;;;14.70;99.90;;;-144.05;74.84;56819.09;5057813;28;20116;-90
2023/06/07 07:01:48;;;;;;;22.77;10.15;;;14.60;99.90;;;-144.05;75.30;56814.84;5057690;28;20049;-91
2023/06/07 07:04:19;;;;;;;14.25;9.93;;;14.60;99.90;;;-144.05;75.85;56838.22;5059370;28;20033;-88
2023/06/07 07:06:45;;;;;;;15.70;9.90;;;14.60;99.90;;;-144.05;76.22;56831.84;5042098;28;20033;-85
2023/06/07 07:09:15;;;;;;;16.45;9.77;;;14.60;99.90;;;-144.05;76.56;56823.34;5042670;28;20151;-90
2023/06/07 07:11:41;;;;;;;21.88;10.73;;;14.80;99.90;;;-144.05;76.51;56844.59;5043060;28;20096;-91
2023/06/07 07:14:07;;;;;;;13.13;9.73;;;14.70;99.90;;;-144.05;76.63;56836.09;5045156;28;20060;-90
2023/06/07 07:16:49;;;;;;;17.67;9.93;;;14.80;99.90;;;-144.05;76.56;56816.97;5049427;28;20063;-88
2023/06/07 07:27:27;;;;;;;;;;;;;;;;;;;;;
2023/06/07 07:33:43;;;;;;;16.42;9.77;;;15.00;99.90;;;-144.05;78.06;56829.72;5057198;28;20116;-89
2023/06/07 07:41:40;;;;;;;;;;;;;;;;;;;;;
2023/06/07 07:48:04;;;;;;;23.25;11.38;;;15.00;99.90;;;-144.05;77.42;56819.09;5071642;28;20058;-92
2023/06/07 07:51:03;;;;;;;19.35;11.38;;;14.80;99.90;;;-144.05;78.38;56829.72;5033256;28;20037;-89
2023/06/07 07:54:20;;;;;;;24.30;12.13;;;14.70;99.90;;;-144.05;79.38;56806.34;5054156;28;20037;-90
2023/06/07 08:03:48;;;;;;;26.20;11.73;;;14.50;99.90;;;-144.05;79.75;56831.84;5046737;28;20063;-91
2023/06/07 08:06:49;;;;;;;21.47;12.60;;;14.60;99.90;;;-144.05;79.94;56836.09;5043434;28;20029;-91
2023/06/07 08:09:32;;;;;;;18.73;11.90;;;14.60;99.90;;;-144.05;79.30;56819.09;5040797;28;20324;-91
2023/06/07 08:12:17;;;;;;;20.88;12.60;;;14.70;99.90;;;-144.05;79.00;56816.97;5044307;28;20032;-92
2023/06/07 08:15:37;;;;;;;20.58;12.48;;;14.70;99.90;;;-144.05;79.16;56838.22;5058917;28;20113;-84
2023/06/07 08:18:56;;;;;;;20.95;12.65;;;14.70;99.90;;;-144.05;79.58;56806.34;5043874;28;20518;-91
2023/06/07 08:22:17;;;;;;;22.10;14.15;;;14.70;99.90;;;-144.05;79.69;56808.47;5061430;28;20056;-90
2023/06/07 08:24:55;;;;;;;27.90;14.85;;;14.70;99.90;;;-144.05;79.80;56844.59;5043220;28;20029;-91
2023/06/07 08:27:27;;;;;;;30.20;15.25;;;14.70;99.90;;;-144.05;79.83;56812.72;5046667;28;20027;-87
2023/06/07 08:30:27;;;;;;;24.25;15.35;;;14.80;99.90;;;-144.05;79.12;56833.97;5036718;28;20509;-90
2023/06/07 08:34:30;;;;;;;;;;;;;;;;;;;;;
2023/06/07 08:37:00;;;;;;;28.65;19.73;;;14.80;99.90;;;-144.05;79.22;56827.59;5063436;28;20406;-86
2023/06/07 08:39:52;;;;;;;35.58;21.83;;;14.80;99.90;;;-144.05;79.53;56825.47;5048358;28;20052;-88
2023/06/07 08:42:21;;;;;;;39.33;23.35;;;14.90;99.90;;;-144.05;79.57;56827.59;5048461;28;20025;-87
2023/06/07 08:44:50;;;;;;;48.08;26.75;;;15.00;99.90;;;-144.05;79.31;56840.34;5043791;28;20028;-89
2023/06/07 08:47:25;;;;;;;53.53;31.27;;;15.10;99.90;;;-144.05;78.91;56846.72;5060620;28;20055;-89
2023/06/07 08:49:59;;;;;;;56.33;33.17;;;15.20;99.90;;;-144.05;77.88;56829.72;5043514;28;20028;-87
2023/06/07 08:52:50;;;;;;;;;;;;;;;;;;;;;
2023/06/07 08:59:07;;;;;;;43.85;29.17;;;15.60;99.90;;;-144.05;74.37;56827.59;5029664;28;20062;-89
2023/06/07 09:01:44;;;;;;;49.55;29.33;;;15.70;99.90;;;-144.05;74.34;56846.72;5039888;28;20461;-89
2023/06/07 09:04:17;;;;;;;49.10;32.38;;;16.00;99.90;;;-144.05;73.18;56819.09;5040061;28;20048;-90
2023/06/07 09:06:46;;;;;;;62.70;32.33;;;16.20;99.90;;;-144.05;71.78;56823.34;5039545;28;20033;-87
2023/06/07 09:09:22;;;;;;;47.83;29.75;;;16.10;99.90;;;-144.05;71.43;56831.84;5056076;28;20036;-91
2023/06/07 09:11:55;;;;;;;42.30;29.65;;;16.30;99.90;;;-144.05;71.12;56829.72;5037739;28;20048;-90
2023/06/07 09:14:28;;;;;;;39.47;27.42;;;16.40;99.90;;;-144.05;70.68;56816.97;5039129;28;20063;-92
2023/06/07 09:17:45;;;;;;;40.75;24.45;;;16.50;99.90;;;-144.05;71.00;56836.09;5039281;28;20037;-89
2023/06/07 09:20:33;;;;;;;31.53;22.57;;;16.60;99.90;;;-144.05;70.46;56844.59;5037514;28;20040;-91
2023/06/07 09:23:22;;;;;;;34.85;23.02;;;16.50;99.90;;;-144.05;70.17;56808.47;5037522;28;20029;-90
2023/06/07 09:25:56;;;;;;;35.33;23.80;;;16.50;99.90;;;-144.05;70.76;56838.22;5038182;28;20025;-90
2023/06/07 09:28:22;;;;;;;35.90;24.02;;;16.70;99.90;;;-144.05;70.12;56859.47;5038909;28;20029;-89
2023/06/07 09:30:59;;;;;;;32.67;24.58;;;16.60;99.90;;;-144.05;70.02;56825.47;5039202;28;20556;-90
2023/06/07 09:33:39;;;;;;;30.35;23.65;;;16.50;99.90;;;-144.05;70.79;56842.47;5039577;28;20043;-88
2023/06/07 09:36:26;;;;;;;28.15;21.88;;;16.60;99.90;;;-144.05;72.11;56831.84;5056291;28;20040;-89
2023/06/07 09:38:56;;;;;;;29.27;19.90;;;16.80;99.90;;;-144.05;71.81;56846.72;5039254;28;20055;-88
2023/06/07 09:42:16;;;;;;;33.47;24.98;;;16.80;99.90;;;-144.05;71.66;56829.72;5040233;28;20033;-89
2023/06/07 09:46:01;;;;;;;40.42;27.23;;;16.60;99.90;;;-144.05;72.70;56842.47;5052208;28;20033;-87
2023/06/07 09:50:04;;;;;;;40.08;26.10;;;16.40;99.90;;;-144.05;74.47;56825.47;5024583;28;20044;-90
2023/06/07 09:58:24;;;;;;;43.60;28.20;;;16.20;99.90;;;-144.05;76.88;56829.72;4953414;29;20032;-89
2023/06/07 10:06:39;;;;;;;53.75;35.95;;;16.40;99.90;;;-144.05;76.03;56842.47;4991538;28;20081;-90
2023/06/07 10:09:30;;;;;;;56.28;39.22;;;16.40;99.90;;;-144.05;75.65;56844.59;4975900;28;20389;-89
2023/06/07 10:15:31;;;;;;;47.55;30.25;;;16.80;99.90;;;-144.05;74.16;56848.84;4977033;28;20093;-87
2023/06/07 10:18:26;;;;;;;42.25;27.13;;;17.00;99.90;;;-144.05;73.72;56848.84;4960034;28;20030;-89
2023/06/07 10:21:06;;;;;;;36.53;25.45;;;17.10;99.90;;;-144.05;73.20;56825.47;4959771;28;20027;-89
2023/06/07 10:23:51;;;;;;;32.95;22.90;;;17.40;99.90;;;-144.05;72.33;56848.84;5028407;28;20090;-89
2023/06/07 10:26:58;;;;;;;31.33;18.63;;;17.60;99.90;;;-144.05;71.30;56855.22;5043593;28;20052;-89
2023/06/07 10:30:13;;;;;;;31.98;21.25;;;17.70;99.90;;;-144.05;70.14;56859.47;5063763;28;20044;-89
2023/06/07 10:33:06;;;;;;;31.33;21.02;;;17.50;99.90;;;-144.05;70.49;56836.09;5045314;28;20036;-90
2023/06/07 10:35:34;;;;;;;30.92;20.27;;;17.80;99.90;;;-144.05;70.94;56848.84;5044039;28;20033;-89
2023/06/07 10:38:03;;;;;;;38.45;20.95;;;18.00;99.90;;;-144.05;69.40;56836.09;5059462;28;20021;-89
2023/06/07 10:41:02;;;;;;;38.00;21.25;;;18.30;99.90;;;-144.05;69.25;56827.59;5041000;28;20478;-91
2023/06/07 10:43:59;;;;;;;33.70;20.90;;;18.60;99.90;;;-144.05;67.18;56853.09;5040136;28;20503;-90
2023/06/07 10:46:49;;;;;;;31.02;19.42;;;19.30;99.90;;;-144.05;64.61;56861.56;5040368;28;20028;-90
2023/06/07 10:53:13;;;;;;;;;;;20.00;99.90;;;-144.05;60.43;56865.81;5050964;28;20100;-90
2023/06/07 10:56:42;;;;;;;42.47;25.35;;;19.90;99.90;;;-144.05;60.28;56870.06;5057303;28;19915;-89
2023/06/07 10:59:14;;;;;;;32.65;23.67;;;19.80;99.90;;;-144.05;61.60;56878.56;5040670;28;20500;-89
2023/06/07 11:01:56;;;;;;;;;;;;;;;;;;;;;
2023/06/07 11:05:03;;;;;;;29.23;21.10;;;19.40;99.90;;;-144.05;62.32;56863.69;5057736;28;20111;-87
2023/06/07 11:08:43;;;;;;;40.80;28.75;;;19.30;99.90;;;-144.05;62.59;56878.56;5038733;28;20521;-88
2023/06/07 11:12:12;;;;;;;37.20;28.20;;;19.50;99.90;;;-144.05;60.70;56874.31;5037668;28;20047;-88
2023/06/07 11:15:17;;;;;;;42.95;28.55;;;20.10;99.90;;;-144.05;56.54;56891.31;5038747;28;20254;-86
2023/06/07 11:18:00;;;;;;;34.70;25.75;;;21.00;99.90;;;-144.05;55.30;56895.56;5039089;28;20045;-89
2023/06/07 11:20:51;;;;;;;43.13;30.40;;;21.20;99.90;;;-144.05;54.40;56878.56;5039230;28;20047;-88
2023/06/07 11:24:13;;;;;;;40.17;30.83;;;21.40;99.90;;;-144.05;54.22;56895.56;5054993;28;20552;-88
2023/06/07 11:26:40;;;;;;;39.97;32.42;;;21.20;99.90;;;-144.05;54.71;56910.44;5039329;28;20029;-88